sensor_id;sensor_type;location;lat;lon;timestamp;P1;durP1;ratioP1;P2;durP2;ratioP2
61590;SDS011;71994;52.410;-1.966;2023-08-31T00:02:06;2.47;;;1.20;;
61590;SDS011;71994;52.410;-1.966;2023-08-31T00:05:13;3.42;;;1.10;;
61590;SDS011;71994;52.410;-1.966;2023-08-31T00:08:19;1.90;;;1.10;;
61590;SDS011;71994;52.410;-1.966;2023-08-31T00:11:25;3.72;;;1.55;;
61590;SDS011;71994;52.410;-1.966;2023-08-31T00:14:38;2.25;;;1.05;;
61590;SDS011;71994;52.410;-1.966;2023-08-31T00:17:44;2.00;;;1.30;;
61590;SDS011;71994;52.410;-1.966;2023-08-31T00:20:51;3.10;;;1.42;;
61590;SDS011;71994;52.410;-1.966;2023-08-31T00:23:58;2.28;;;1.10;;
61590;SDS011;71994;52.410;-1.966;2023-08-31T00:27:04;2.15;;;1.10;;
61590;SDS011;71994;52.410;-1.966;2023-08-31T00:30:16;1.42;;;0.90;;
61590;SDS011;71994;52.410;-1.966;2023-08-31T00:33:22;2.43;;;1.27;;
61590;SDS011;71994;52.410;-1.966;2023-08-31T00:36:33;3.70;;;1.30;;
61590;SDS011;71994;52.410;-1.966;2023-08-31T00:39:40;1.58;;;1.00;;
61590;SDS011;71994;52.410;-1.966;2023-08-31T00:42:47;1.98;;;1.15;;
61590;SDS011;71994;52.410;-1.966;2023-08-31T00:45:57;1.90;;;1.08;;
61590;SDS011;71994;52.410;-1.966;2023-08-31T00:49:06;2.55;;;1.25;;
61590;SDS011;71994;52.410;-1.966;2023-08-31T00:52:13;2.22;;;1.13;;
61590;SDS011;71994;52.410;-1.966;2023-08-31T00:55:20;2.63;;;1.30;;
61590;SDS011;71994;52.410;-1.966;2023-08-31T00:58:26;3.10;;;1.20;;
61590;SDS011;71994;52.410;-1.966;2023-08-31T01:01:36;1.92;;;1.30;;
61590;SDS011;71994;52.410;-1.966;2023-08-31T01:04:51;3.15;;;1.15;;
61590;SDS011;71994;52.410;-1.966;2023-08-31T01:08:13;1.95;;;1.17;;
61590;SDS011;71994;52.410;-1.966;2023-08-31T01:11:29;1.98;;;1.13;;
61590;SDS011;71994;52.410;-1.966;2023-08-31T01:14:42;3.40;;;1.40;;
61590;SDS011;71994;52.410;-1.966;2023-08-31T01:17:54;1.70;;;1.00;;
61590;SDS011;71994;52.410;-1.966;2023-08-31T01:21:06;2.53;;;1.17;;
61590;SDS011;71994;52.410;-1.966;2023-08-31T01:24:20;1.73;;;0.85;;
61590;SDS011;71994;52.410;-1.966;2023-08-31T01:27:28;1.95;;;1.10;;
61590;SDS011;71994;52.410;-1.966;2023-08-31T01:30:35;2.28;;;1.10;;
61590;SDS011;71994;52.410;-1.966;2023-08-31T01:33:41;2.80;;;1.17;;
61590;SDS011;71994;52.410;-1.966;2023-08-31T01:36:48;2.67;;;1.05;;
61590;SDS011;71994;52.410;-1.966;2023-08-31T01:40:14;1.90;;;1.00;;
61590;SDS011;71994;52.410;-1.966;2023-08-31T01:43:23;3.10;;;1.30;;
61590;SDS011;71994;52.410;-1.966;2023-08-31T01:46:30;2.22;;;0.98;;
61590;SDS011;71994;52.410;-1.966;2023-08-31T01:49:39;3.42;;;1.15;;
61590;SDS011;71994;52.410;-1.966;2023-08-31T01:52:46;2.22;;;1.00;;
61590;SDS011;71994;52.410;-1.966;2023-08-31T01:55:55;2.03;;;1.02;;
61590;SDS011;71994;52.410;-1.966;2023-08-31T01:59:01;2.03;;;1.08;;
61590;SDS011;71994;52.410;-1.966;2023-08-31T02:02:07;2.85;;;1.08;;
61590;SDS011;71994;52.410;-1.966;2023-08-31T02:05:14;1.60;;;0.90;;
61590;SDS011;71994;52.410;-1.966;2023-08-31T02:08:20;1.75;;;1.10;;
61590;SDS011;71994;52.410;-1.966;2023-08-31T02:11:29;1.52;;;1.00;;
61590;SDS011;71994;52.410;-1.966;2023-08-31T02:14:40;2.58;;;1.00;;
61590;SDS011;71994;52.410;-1.966;2023-08-31T02:17:46;1.60;;;0.85;;
61590;SDS011;71994;52.410;-1.966;2023-08-31T02:20:54;1.90;;;0.90;;
61590;SDS011;71994;52.410;-1.966;2023-08-31T02:24:00;1.83;;;0.90;;
61590;SDS011;71994;52.410;-1.966;2023-08-31T02:27:09;2.35;;;1.10;;
61590;SDS011;71994;52.410;-1.966;2023-08-31T02:30:17;2.35;;;0.88;;
61590;SDS011;71994;52.410;-1.966;2023-08-31T02:33:24;2.38;;;1.00;;
61590;SDS011;71994;52.410;-1.966;2023-08-31T02:36:32;2.33;;;0.88;;
61590;SDS011;71994;52.410;-1.966;2023-08-31T02:39:42;1.98;;;1.20;;
61590;SDS011;71994;52.410;-1.966;2023-08-31T02:42:52;2.20;;;0.85;;
61590;SDS011;71994;52.410;-1.966;2023-08-31T02:45:59;1.38;;;0.80;;
61590;SDS011;71994;52.410;-1.966;2023-08-31T02:49:08;1.73;;;1.00;;
61590;SDS011;71994;52.410;-1.966;2023-08-31T02:52:15;2.03;;;0.90;;
61590;SDS011;71994;52.410;-1.966;2023-08-31T02:55:21;2.20;;;0.98;;
61590;SDS011;71994;52.410;-1.966;2023-08-31T02:58:30;2.33;;;0.90;;
61590;SDS011;71994;52.410;-1.966;2023-08-31T03:01:36;2.67;;;0.90;;
61590;SDS011;71994;52.410;-1.966;2023-08-31T03:04:43;1.45;;;0.85;;
61590;SDS011;71994;52.410;-1.966;2023-08-31T03:07:50;2.35;;;1.10;;
61590;SDS011;71994;52.410;-1.966;2023-08-31T03:10:56;2.80;;;1.10;;
61590;SDS011;71994;52.410;-1.966;2023-08-31T03:14:06;1.70;;;0.90;;
61590;SDS011;71994;52.410;-1.966;2023-08-31T03:17:15;2.05;;;0.90;;
61590;SDS011;71994;52.410;-1.966;2023-08-31T03:20:21;2.20;;;0.88;;
61590;SDS011;71994;52.410;-1.966;2023-08-31T03:23:28;2.05;;;1.20;;
61590;SDS011;71994;52.410;-1.966;2023-08-31T03:26:35;1.50;;;0.80;;
61590;SDS011;71994;52.410;-1.966;2023-08-31T03:29:44;1.50;;;0.90;;
61590;SDS011;71994;52.410;-1.966;2023-08-31T03:32:51;2.33;;;0.88;;
61590;SDS011;71994;52.410;-1.966;2023-08-31T03:36:00;1.30;;;0.90;;
61590;SDS011;71994;52.410;-1.966;2023-08-31T03:39:09;1.20;;;0.70;;
61590;SDS011;71994;52.410;-1.966;2023-08-31T03:42:16;1.55;;;0.90;;
61590;SDS011;71994;52.410;-1.966;2023-08-31T03:45:25;2.50;;;1.00;;
61590;SDS011;71994;52.410;-1.966;2023-08-31T03:48:32;1.77;;;0.90;;
61590;SDS011;71994;52.410;-1.966;2023-08-31T03:51:39;2.10;;;1.10;;
61590;SDS011;71994;52.410;-1.966;2023-08-31T03:54:46;1.90;;;0.90;;
61590;SDS011;71994;52.410;-1.966;2023-08-31T03:57:56;2.40;;;1.20;;
61590;SDS011;71994;52.410;-1.966;2023-08-31T04:01:10;1.55;;;0.98;;
61590;SDS011;71994;52.410;-1.966;2023-08-31T04:04:17;1.45;;;0.80;;
61590;SDS011;71994;52.410;-1.966;2023-08-31T04:07:24;1.88;;;1.15;;
61590;SDS011;71994;52.410;-1.966;2023-08-31T04:10:39;2.08;;;1.10;;
61590;SDS011;71994;52.410;-1.966;2023-08-31T04:13:46;2.45;;;1.00;;
61590;SDS011;71994;52.410;-1.966;2023-08-31T04:16:56;2.22;;;1.10;;
61590;SDS011;71994;52.410;-1.966;2023-08-31T04:20:06;1.83;;;0.98;;
61590;SDS011;71994;52.410;-1.966;2023-08-31T04:23:17;2.22;;;0.85;;
61590;SDS011;71994;52.410;-1.966;2023-08-31T04:26:24;3.70;;;1.02;;
61590;SDS011;71994;52.410;-1.966;2023-08-31T04:29:32;2.42;;;0.90;;
61590;SDS011;71994;52.410;-1.966;2023-08-31T04:32:42;2.13;;;0.95;;
61590;SDS011;71994;52.410;-1.966;2023-08-31T04:35:50;1.58;;;0.82;;
61590;SDS011;71994;52.410;-1.966;2023-08-31T04:38:56;1.75;;;0.82;;
61590;SDS011;71994;52.410;-1.966;2023-08-31T04:42:03;1.83;;;0.90;;
61590;SDS011;71994;52.410;-1.966;2023-08-31T04:45:10;2.33;;;1.15;;
61590;SDS011;71994;52.410;-1.966;2023-08-31T04:48:20;1.20;;;0.80;;
61590;SDS011;71994;52.410;-1.966;2023-08-31T04:51:32;1.67;;;0.90;;
61590;SDS011;71994;52.410;-1.966;2023-08-31T04:54:56;1.90;;;0.95;;
61590;SDS011;71994;52.410;-1.966;2023-08-31T04:58:19;2.15;;;1.02;;
61590;SDS011;71994;52.410;-1.966;2023-08-31T05:01:41;1.70;;;0.90;;
61590;SDS011;71994;52.410;-1.966;2023-08-31T05:05:08;1.20;;;0.85;;
61590;SDS011;71994;52.410;-1.966;2023-08-31T05:08:16;1.60;;;0.77;;
61590;SDS011;71994;52.410;-1.966;2023-08-31T05:11:22;1.30;;;0.85;;
61590;SDS011;71994;52.410;-1.966;2023-08-31T05:14:30;1.90;;;1.00;;
61590;SDS011;71994;52.410;-1.966;2023-08-31T05:17:39;2.65;;;1.27;;
61590;SDS011;71994;52.410;-1.966;2023-08-31T05:20:48;1.60;;;1.00;;
61590;SDS011;71994;52.410;-1.966;2023-08-31T05:23:55;2.05;;;1.30;;
61590;SDS011;71994;52.410;-1.966;2023-08-31T05:27:01;1.63;;;0.98;;
61590;SDS011;71994;52.410;-1.966;2023-08-31T05:30:08;1.80;;;1.05;;
61590;SDS011;71994;52.410;-1.966;2023-08-31T05:33:14;3.13;;;1.10;;
61590;SDS011;71994;52.410;-1.966;2023-08-31T05:36:23;1.88;;;1.00;;
61590;SDS011;71994;52.410;-1.966;2023-08-31T05:39:30;2.33;;;0.95;;
61590;SDS011;71994;52.410;-1.966;2023-08-31T05:42:36;2.50;;;1.10;;
61590;SDS011;71994;52.410;-1.966;2023-08-31T05:45:42;3.03;;;1.02;;
61590;SDS011;71994;52.410;-1.966;2023-08-31T05:48:49;2.30;;;1.10;;
61590;SDS011;71994;52.410;-1.966;2023-08-31T05:51:58;2.00;;;1.00;;
61590;SDS011;71994;52.410;-1.966;2023-08-31T05:55:04;1.97;;;1.10;;
61590;SDS011;71994;52.410;-1.966;2023-08-31T05:58:11;1.77;;;0.90;;
61590;SDS011;71994;52.410;-1.966;2023-08-31T06:01:20;5.13;;;1.20;;
61590;SDS011;71994;52.410;-1.966;2023-08-31T06:04:26;2.53;;;1.10;;
61590;SDS011;71994;52.410;-1.966;2023-08-31T06:07:36;1.85;;;1.10;;
61590;SDS011;71994;52.410;-1.966;2023-08-31T06:10:42;2.13;;;1.10;;
61590;SDS011;71994;52.410;-1.966;2023-08-31T06:13:50;2.05;;;1.00;;
61590;SDS011;71994;52.410;-1.966;2023-08-31T06:16:56;2.13;;;1.13;;
61590;SDS011;71994;52.410;-1.966;2023-08-31T06:20:02;1.50;;;0.80;;
61590;SDS011;71994;52.410;-1.966;2023-08-31T06:23:13;2.25;;;1.17;;
61590;SDS011;71994;52.410;-1.966;2023-08-31T06:26:19;1.17;;;0.80;;
61590;SDS011;71994;52.410;-1.966;2023-08-31T06:29:26;1.92;;;1.20;;
61590;SDS011;71994;52.410;-1.966;2023-08-31T06:32:33;2.10;;;1.10;;
61590;SDS011;71994;52.410;-1.966;2023-08-31T06:35:40;1.55;;;1.00;;
61590;SDS011;71994;52.410;-1.966;2023-08-31T06:38:49;2.08;;;1.25;;
61590;SDS011;71994;52.410;-1.966;2023-08-31T06:41:55;1.73;;;1.10;;
61590;SDS011;71994;52.410;-1.966;2023-08-31T06:45:02;4.70;;;1.30;;
61590;SDS011;71994;52.410;-1.966;2023-08-31T06:48:08;4.97;;;1.38;;
61590;SDS011;71994;52.410;-1.966;2023-08-31T06:51:14;6.13;;;1.35;;
61590;SDS011;71994;52.410;-1.966;2023-08-31T06:54:23;4.10;;;1.27;;
61590;SDS011;71994;52.410;-1.966;2023-08-31T06:57:30;8.65;;;1.50;;
61590;SDS011;71994;52.410;-1.966;2023-08-31T07:00:36;7.10;;;1.40;;
61590;SDS011;71994;52.410;-1.966;2023-08-31T07:03:44;5.80;;;1.17;;
61590;SDS011;71994;52.410;-1.966;2023-08-31T07:07:03;5.20;;;1.37;;
61590;SDS011;71994;52.410;-1.966;2023-08-31T07:10:14;6.35;;;1.30;;
61590;SDS011;71994;52.410;-1.966;2023-08-31T07:13:20;2.80;;;1.17;;
61590;SDS011;71994;52.410;-1.966;2023-08-31T07:16:32;8.02;;;1.50;;
61590;SDS011;71994;52.410;-1.966;2023-08-31T07:19:39;6.65;;;1.45;;
61590;SDS011;71994;52.410;-1.966;2023-08-31T07:22:45;5.75;;;1.50;;
61590;SDS011;71994;52.410;-1.966;2023-08-31T07:25:56;3.35;;;1.15;;
61590;SDS011;71994;52.410;-1.966;2023-08-31T07:29:03;3.78;;;1.55;;
61590;SDS011;71994;52.410;-1.966;2023-08-31T07:32:10;3.97;;;1.35;;
61590;SDS011;71994;52.410;-1.966;2023-08-31T07:35:16;2.92;;;1.27;;
61590;SDS011;71994;52.410;-1.966;2023-08-31T07:38:23;4.72;;;1.42;;
61590;SDS011;71994;52.410;-1.966;2023-08-31T07:41:32;3.65;;;1.17;;
61590;SDS011;71994;52.410;-1.966;2023-08-31T07:44:38;3.03;;;1.10;;
61590;SDS011;71994;52.410;-1.966;2023-08-31T07:47:46;2.22;;;1.15;;
61590;SDS011;71994;52.410;-1.966;2023-08-31T07:50:55;3.33;;;1.20;;
61590;SDS011;71994;52.410;-1.966;2023-08-31T07:54:01;3.65;;;1.23;;
61590;SDS011;71994;52.410;-1.966;2023-08-31T07:57:12;3.25;;;1.40;;
61590;SDS011;71994;52.410;-1.966;2023-08-31T08:00:21;3.15;;;1.35;;
61590;SDS011;71994;52.410;-1.966;2023-08-31T08:03:27;5.13;;;1.20;;
61590;SDS011;71994;52.410;-1.966;2023-08-31T08:06:33;3.13;;;1.23;;
61590;SDS011;71994;52.410;-1.966;2023-08-31T08:09:39;2.95;;;1.13;;
61590;SDS011;71994;52.410;-1.966;2023-08-31T08:12:51;3.78;;;1.20;;
61590;SDS011;71994;52.410;-1.966;2023-08-31T08:15:58;2.92;;;1.20;;
61590;SDS011;71994;52.410;-1.966;2023-08-31T08:19:05;2.17;;;1.10;;
61590;SDS011;71994;52.410;-1.966;2023-08-31T08:22:12;3.22;;;1.35;;
61590;SDS011;71994;52.410;-1.966;2023-08-31T08:25:18;2.63;;;1.25;;
61590;SDS011;71994;52.410;-1.966;2023-08-31T08:28:28;3.53;;;1.27;;
61590;SDS011;71994;52.410;-1.966;2023-08-31T08:31:35;3.72;;;1.20;;
61590;SDS011;71994;52.410;-1.966;2023-08-31T08:34:41;3.92;;;1.42;;
61590;SDS011;71994;52.410;-1.966;2023-08-31T08:37:47;3.25;;;1.30;;
61590;SDS011;71994;52.410;-1.966;2023-08-31T08:41:11;2.90;;;1.40;;
61590;SDS011;71994;52.410;-1.966;2023-08-31T08:44:44;2.58;;;1.40;;
61590;SDS011;71994;52.410;-1.966;2023-08-31T08:48:06;2.40;;;1.15;;
61590;SDS011;71994;52.410;-1.966;2023-08-31T08:51:35;2.33;;;1.27;;
61590;SDS011;71994;52.410;-1.966;2023-08-31T08:54:46;2.85;;;1.50;;
61590;SDS011;71994;52.410;-1.966;2023-08-31T08:57:57;1.92;;;1.10;;
61590;SDS011;71994;52.410;-1.966;2023-08-31T09:01:10;2.13;;;1.25;;
61590;SDS011;71994;52.410;-1.966;2023-08-31T09:04:21;4.13;;;1.58;;
61590;SDS011;71994;52.410;-1.966;2023-08-31T09:07:29;2.10;;;1.20;;
61590;SDS011;71994;52.410;-1.966;2023-08-31T09:10:41;3.20;;;1.33;;
61590;SDS011;71994;52.410;-1.966;2023-08-31T09:13:49;2.72;;;1.20;;
61590;SDS011;71994;52.410;-1.966;2023-08-31T09:16:58;3.88;;;1.20;;
61590;SDS011;71994;52.410;-1.966;2023-08-31T09:23:12;2.42;;;1.10;;
61590;SDS011;71994;52.410;-1.966;2023-08-31T09:26:19;1.85;;;1.10;;
61590;SDS011;71994;52.410;-1.966;2023-08-31T09:29:25;2.88;;;1.25;;
61590;SDS011;71994;52.410;-1.966;2023-08-31T09:32:38;2.90;;;1.20;;
61590;SDS011;71994;52.410;-1.966;2023-08-31T09:35:48;2.80;;;1.23;;
61590;SDS011;71994;52.410;-1.966;2023-08-31T09:38:57;2.80;;;1.00;;
61590;SDS011;71994;52.410;-1.966;2023-08-31T09:42:04;1.52;;;1.00;;
61590;SDS011;71994;52.410;-1.966;2023-08-31T09:45:12;1.88;;;1.05;;
61590;SDS011;71994;52.410;-1.966;2023-08-31T09:48:25;3.50;;;1.30;;
61590;SDS011;71994;52.410;-1.966;2023-08-31T09:51:32;3.00;;;1.10;;
61590;SDS011;71994;52.410;-1.966;2023-08-31T09:54:39;2.42;;;1.17;;
61590;SDS011;71994;52.410;-1.966;2023-08-31T09:57:46;3.30;;;1.30;;
61590;SDS011;71994;52.410;-1.966;2023-08-31T10:00:57;2.22;;;1.13;;
61590;SDS011;71994;52.410;-1.966;2023-08-31T10:04:08;2.92;;;1.33;;
61590;SDS011;71994;52.410;-1.966;2023-08-31T10:07:15;2.65;;;1.10;;
61590;SDS011;71994;52.410;-1.966;2023-08-31T10:10:22;1.55;;;1.00;;
61590;SDS011;71994;52.410;-1.966;2023-08-31T10:13:28;2.05;;;1.08;;
61590;SDS011;71994;52.410;-1.966;2023-08-31T10:16:39;1.65;;;1.02;;
61590;SDS011;71994;52.410;-1.966;2023-08-31T10:19:49;2.92;;;0.90;;
61590;SDS011;71994;52.410;-1.966;2023-08-31T10:22:56;2.05;;;1.20;;
61590;SDS011;71994;52.410;-1.966;2023-08-31T10:26:02;2.55;;;1.13;;
61590;SDS011;71994;52.410;-1.966;2023-08-31T10:29:24;1.80;;;1.10;;
61590;SDS011;71994;52.410;-1.966;2023-08-31T10:32:33;1.90;;;1.00;;
61590;SDS011;71994;52.410;-1.966;2023-08-31T10:35:47;1.77;;;1.10;;
61590;SDS011;71994;52.410;-1.966;2023-08-31T10:38:59;2.42;;;1.00;;
61590;SDS011;71994;52.410;-1.966;2023-08-31T10:42:10;1.92;;;1.10;;
61590;SDS011;71994;52.410;-1.966;2023-08-31T10:45:19;2.17;;;0.98;;
61590;SDS011;71994;52.410;-1.966;2023-08-31T10:48:26;3.00;;;1.17;;
61590;SDS011;71994;52.410;-1.966;2023-08-31T10:51:38;2.78;;;1.33;;
61590;SDS011;71994;52.410;-1.966;2023-08-31T10:54:46;2.88;;;1.40;;
61590;SDS011;71994;52.410;-1.966;2023-08-31T10:57:52;4.28;;;1.17;;
61590;SDS011;71994;52.410;-1.966;2023-08-31T11:01:19;2.65;;;1.20;;
61590;SDS011;71994;52.410;-1.966;2023-08-31T11:04:53;2.90;;;1.15;;
61590;SDS011;71994;52.410;-1.966;2023-08-31T11:08:04;2.75;;;1.20;;
61590;SDS011;71994;52.410;-1.966;2023-08-31T11:11:11;2.55;;;1.20;;
61590;SDS011;71994;52.410;-1.966;2023-08-31T11:14:24;2.88;;;1.20;;
61590;SDS011;71994;52.410;-1.966;2023-08-31T11:17:36;3.28;;;1.20;;
61590;SDS011;71994;52.410;-1.966;2023-08-31T11:20:56;2.55;;;1.10;;
61590;SDS011;71994;52.410;-1.966;2023-08-31T11:24:09;2.28;;;1.38;;
61590;SDS011;71994;52.410;-1.966;2023-08-31T11:27:18;3.28;;;1.20;;
61590;SDS011;71994;52.410;-1.966;2023-08-31T11:30:25;2.53;;;1.30;;
61590;SDS011;71994;52.410;-1.966;2023-08-31T11:33:34;2.45;;;1.17;;
61590;SDS011;71994;52.410;-1.966;2023-08-31T11:36:40;3.65;;;1.38;;
61590;SDS011;71994;52.410;-1.966;2023-08-31T11:39:55;2.63;;;1.30;;
61590;SDS011;71994;52.410;-1.966;2023-08-31T11:43:09;2.83;;;1.48;;
61590;SDS011;71994;52.410;-1.966;2023-08-31T11:46:16;2.78;;;1.25;;
61590;SDS011;71994;52.410;-1.966;2023-08-31T11:49:23;2.00;;;1.20;;
61590;SDS011;71994;52.410;-1.966;2023-08-31T11:52:31;2.08;;;1.27;;
61590;SDS011;71994;52.410;-1.966;2023-08-31T11:55:43;2.67;;;1.45;;
61590;SDS011;71994;52.410;-1.966;2023-08-31T11:58:56;3.22;;;1.25;;
61590;SDS011;71994;52.410;-1.966;2023-08-31T12:02:05;2.22;;;1.17;;
61590;SDS011;71994;52.410;-1.966;2023-08-31T12:05:13;2.28;;;1.30;;
61590;SDS011;71994;52.410;-1.966;2023-08-31T12:08:25;2.35;;;1.13;;
61590;SDS011;71994;52.410;-1.966;2023-08-31T12:11:37;2.35;;;1.10;;
61590;SDS011;71994;52.410;-1.966;2023-08-31T12:14:46;2.85;;;1.17;;
61590;SDS011;71994;52.410;-1.966;2023-08-31T12:17:52;2.60;;;1.00;;
61590;SDS011;71994;52.410;-1.966;2023-08-31T12:20:59;2.33;;;1.30;;
61590;SDS011;71994;52.410;-1.966;2023-08-31T12:24:07;3.13;;;1.20;;
61590;SDS011;71994;52.410;-1.966;2023-08-31T12:27:16;3.20;;;1.30;;
61590;SDS011;71994;52.410;-1.966;2023-08-31T12:30:25;2.33;;;1.27;;
61590;SDS011;71994;52.410;-1.966;2023-08-31T12:33:31;2.63;;;1.20;;
61590;SDS011;71994;52.410;-1.966;2023-08-31T12:36:38;2.55;;;1.30;;
61590;SDS011;71994;52.410;-1.966;2023-08-31T12:39:45;2.67;;;1.20;;
61590;SDS011;71994;52.410;-1.966;2023-08-31T12:42:55;2.05;;;1.17;;
61590;SDS011;71994;52.410;-1.966;2023-08-31T12:46:01;2.23;;;1.13;;
61590;SDS011;71994;52.410;-1.966;2023-08-31T12:49:08;3.20;;;1.30;;
61590;SDS011;71994;52.410;-1.966;2023-08-31T12:52:15;1.98;;;1.00;;
61590;SDS011;71994;52.410;-1.966;2023-08-31T12:55:21;1.50;;;1.00;;
61590;SDS011;71994;52.410;-1.966;2023-08-31T12:58:33;2.03;;;1.20;;
61590;SDS011;71994;52.410;-1.966;2023-08-31T13:01:39;2.38;;;1.30;;
61590;SDS011;71994;52.410;-1.966;2023-08-31T13:04:46;2.15;;;1.20;;
61590;SDS011;71994;52.410;-1.966;2023-08-31T13:07:52;1.67;;;1.10;;
61590;SDS011;71994;52.410;-1.966;2023-08-31T13:11:02;1.70;;;1.10;;
61590;SDS011;71994;52.410;-1.966;2023-08-31T13:14:12;1.73;;;1.03;;
61590;SDS011;71994;52.410;-1.966;2023-08-31T13:17:20;1.90;;;1.15;;
61590;SDS011;71994;52.410;-1.966;2023-08-31T13:20:32;2.37;;;1.17;;
61590;SDS011;71994;52.410;-1.966;2023-08-31T13:23:38;2.78;;;1.20;;
61590;SDS011;71994;52.410;-1.966;2023-08-31T13:26:45;2.83;;;1.52;;
61590;SDS011;71994;52.410;-1.966;2023-08-31T13:29:54;2.35;;;1.02;;
61590;SDS011;71994;52.410;-1.966;2023-08-31T13:33:00;2.13;;;1.13;;
61590;SDS011;71994;52.410;-1.966;2023-08-31T13:36:07;2.38;;;1.10;;
61590;SDS011;71994;52.410;-1.966;2023-08-31T13:39:14;3.10;;;1.38;;
61590;SDS011;71994;52.410;-1.966;2023-08-31T13:42:20;1.77;;;1.10;;
61590;SDS011;71994;52.410;-1.966;2023-08-31T13:45:30;2.45;;;1.30;;
61590;SDS011;71994;52.410;-1.966;2023-08-31T13:48:39;1.75;;;1.20;;
61590;SDS011;71994;52.410;-1.966;2023-08-31T13:51:48;1.92;;;1.30;;
61590;SDS011;71994;52.410;-1.966;2023-08-31T13:54:55;2.50;;;1.25;;
61590;SDS011;71994;52.410;-1.966;2023-08-31T13:58:03;1.92;;;1.20;;
61590;SDS011;71994;52.410;-1.966;2023-08-31T14:01:16;2.17;;;1.13;;
61590;SDS011;71994;52.410;-1.966;2023-08-31T14:04:25;2.58;;;1.20;;
61590;SDS011;71994;52.410;-1.966;2023-08-31T14:07:32;2.10;;;1.20;;
61590;SDS011;71994;52.410;-1.966;2023-08-31T14:10:39;1.95;;;1.08;;
61590;SDS011;71994;52.410;-1.966;2023-08-31T14:13:45;2.65;;;1.30;;
61590;SDS011;71994;52.410;-1.966;2023-08-31T14:16:54;2.53;;;1.30;;
61590;SDS011;71994;52.410;-1.966;2023-08-31T14:20:01;1.83;;;1.08;;
61590;SDS011;71994;52.410;-1.966;2023-08-31T14:23:10;2.60;;;1.33;;
61590;SDS011;71994;52.410;-1.966;2023-08-31T14:26:16;2.63;;;1.20;;
61590;SDS011;71994;52.410;-1.966;2023-08-31T14:29:22;2.22;;;1.20;;
61590;SDS011;71994;52.410;-1.966;2023-08-31T14:32:32;2.85;;;1.33;;
61590;SDS011;71994;52.410;-1.966;2023-08-31T14:35:41;1.77;;;1.10;;
61590;SDS011;71994;52.410;-1.966;2023-08-31T14:38:55;2.67;;;1.30;;
61590;SDS011;71994;52.410;-1.966;2023-08-31T14:42:01;2.00;;;1.30;;
61590;SDS011;71994;52.410;-1.966;2023-08-31T14:45:08;1.45;;;0.98;;
61590;SDS011;71994;52.410;-1.966;2023-08-31T14:48:17;1.50;;;1.00;;
61590;SDS011;71994;52.410;-1.966;2023-08-31T14:51:24;2.07;;;1.10;;
61590;SDS011;71994;52.410;-1.966;2023-08-31T14:54:30;3.05;;;1.23;;
61590;SDS011;71994;52.410;-1.966;2023-08-31T14:57:37;2.20;;;1.10;;
61590;SDS011;71994;52.410;-1.966;2023-08-31T15:00:44;2.88;;;1.27;;
61590;SDS011;71994;52.410;-1.966;2023-08-31T15:03:54;2.08;;;1.23;;
61590;SDS011;71994;52.410;-1.966;2023-08-31T15:07:00;1.67;;;0.98;;
61590;SDS011;71994;52.410;-1.966;2023-08-31T15:10:07;2.03;;;1.20;;
61590;SDS011;71994;52.410;-1.966;2023-08-31T15:13:13;2.03;;;1.00;;
61590;SDS011;71994;52.410;-1.966;2023-08-31T15:16:21;1.90;;;1.17;;
61590;SDS011;71994;52.410;-1.966;2023-08-31T15:19:30;1.83;;;1.20;;
61590;SDS011;71994;52.410;-1.966;2023-08-31T15:22:37;1.70;;;1.20;;
61590;SDS011;71994;52.410;-1.966;2023-08-31T15:25:43;2.13;;;1.17;;
61590;SDS011;71994;52.410;-1.966;2023-08-31T15:28:50;2.22;;;1.17;;
61590;SDS011;71994;52.410;-1.966;2023-08-31T15:31:56;4.03;;;1.30;;
61590;SDS011;71994;52.410;-1.966;2023-08-31T15:35:06;1.77;;;1.13;;
61590;SDS011;71994;52.410;-1.966;2023-08-31T15:41:22;2.35;;;1.20;;
61590;SDS011;71994;52.410;-1.966;2023-08-31T15:44:28;1.77;;;1.03;;
61590;SDS011;71994;52.410;-1.966;2023-08-31T15:47:36;2.25;;;1.20;;
61590;SDS011;71994;52.410;-1.966;2023-08-31T15:50:46;1.77;;;1.20;;
61590;SDS011;71994;52.410;-1.966;2023-08-31T15:53:53;3.15;;;1.48;;
61590;SDS011;71994;52.410;-1.966;2023-08-31T15:56:59;2.58;;;1.13;;
61590;SDS011;71994;52.410;-1.966;2023-08-31T16:00:06;1.98;;;1.10;;
61590;SDS011;71994;52.410;-1.966;2023-08-31T16:03:15;3.05;;;1.20;;
61590;SDS011;71994;52.410;-1.966;2023-08-31T16:06:24;2.35;;;1.27;;
61590;SDS011;71994;52.410;-1.966;2023-08-31T16:09:32;1.95;;;1.20;;
61590;SDS011;71994;52.410;-1.966;2023-08-31T16:12:39;2.72;;;1.10;;
61590;SDS011;71994;52.410;-1.966;2023-08-31T16:15:45;4.50;;;1.50;;
61590;SDS011;71994;52.410;-1.966;2023-08-31T16:18:53;2.00;;;0.98;;
61590;SDS011;71994;52.410;-1.966;2023-08-31T16:22:05;2.58;;;1.30;;
61590;SDS011;71994;52.410;-1.966;2023-08-31T16:25:14;2.58;;;1.20;;
61590;SDS011;71994;52.410;-1.966;2023-08-31T16:28:21;3.10;;;1.10;;
61590;SDS011;71994;52.410;-1.966;2023-08-31T16:31:27;3.08;;;1.05;;
61590;SDS011;71994;52.410;-1.966;2023-08-31T16:34:34;3.13;;;1.20;;
61590;SDS011;71994;52.410;-1.966;2023-08-31T16:37:43;6.15;;;1.45;;
61590;SDS011;71994;52.410;-1.966;2023-08-31T16:40:49;3.60;;;1.53;;
61590;SDS011;71994;52.410;-1.966;2023-08-31T16:43:56;2.65;;;1.08;;
61590;SDS011;71994;52.410;-1.966;2023-08-31T16:47:02;11.63;;;3.30;;
61590;SDS011;71994;52.410;-1.966;2023-08-31T16:50:11;11.37;;;2.03;;
61590;SDS011;71994;52.410;-1.966;2023-08-31T16:53:21;8.43;;;2.40;;
61590;SDS011;71994;52.410;-1.966;2023-08-31T16:56:41;6.88;;;2.05;;
61590;SDS011;71994;52.410;-1.966;2023-08-31T16:59:47;5.20;;;2.25;;
61590;SDS011;71994;52.410;-1.966;2023-08-31T17:02:54;7.90;;;2.28;;
61590;SDS011;71994;52.410;-1.966;2023-08-31T17:06:00;4.85;;;2.47;;
61590;SDS011;71994;52.410;-1.966;2023-08-31T17:09:09;5.28;;;2.13;;
61590;SDS011;71994;52.410;-1.966;2023-08-31T17:12:27;4.38;;;2.15;;
61590;SDS011;71994;52.410;-1.966;2023-08-31T17:15:34;4.97;;;2.28;;
61590;SDS011;71994;52.410;-1.966;2023-08-31T17:18:41;4.53;;;2.20;;
61590;SDS011;71994;52.410;-1.966;2023-08-31T17:21:47;4.88;;;2.20;;
61590;SDS011;71994;52.410;-1.966;2023-08-31T17:24:57;4.15;;;2.13;;
61590;SDS011;71994;52.410;-1.966;2023-08-31T17:28:03;3.92;;;2.08;;
61590;SDS011;71994;52.410;-1.966;2023-08-31T17:31:11;3.00;;;1.70;;
61590;SDS011;71994;52.410;-1.966;2023-08-31T17:34:19;4.70;;;1.95;;
61590;SDS011;71994;52.410;-1.966;2023-08-31T17:37:27;2.88;;;1.95;;
61590;SDS011;71994;52.410;-1.966;2023-08-31T17:40:37;5.00;;;2.13;;
61590;SDS011;71994;52.410;-1.966;2023-08-31T17:43:46;3.75;;;1.90;;
61590;SDS011;71994;52.410;-1.966;2023-08-31T17:46:53;3.08;;;1.70;;
61590;SDS011;71994;52.410;-1.966;2023-08-31T17:50:00;2.95;;;1.90;;
61590;SDS011;71994;52.410;-1.966;2023-08-31T17:53:12;4.63;;;1.90;;
61590;SDS011;71994;52.410;-1.966;2023-08-31T17:56:28;2.75;;;1.90;;
61590;SDS011;71994;52.410;-1.966;2023-08-31T17:59:34;4.40;;;2.10;;
61590;SDS011;71994;52.410;-1.966;2023-08-31T18:02:44;6.60;;;1.83;;
61590;SDS011;71994;52.410;-1.966;2023-08-31T18:05:56;4.47;;;1.70;;
61590;SDS011;71994;52.410;-1.966;2023-08-31T18:09:09;6.50;;;2.00;;
61590;SDS011;71994;52.410;-1.966;2023-08-31T18:12:25;5.35;;;2.15;;
61590;SDS011;71994;52.410;-1.966;2023-08-31T18:15:45;3.33;;;2.13;;
61590;SDS011;71994;52.410;-1.966;2023-08-31T18:18:58;7.00;;;2.70;;
61590;SDS011;71994;52.410;-1.966;2023-08-31T18:34:10;6.55;;;2.20;;
61590;SDS011;71994;52.410;-1.966;2023-08-31T18:37:22;5.22;;;2.03;;
61590;SDS011;71994;52.410;-1.966;2023-08-31T18:40:28;4.72;;;2.20;;
61590;SDS011;71994;52.410;-1.966;2023-08-31T18:44:00;6.72;;;1.95;;
61590;SDS011;71994;52.410;-1.966;2023-08-31T18:47:06;5.18;;;1.90;;
61590;SDS011;71994;52.410;-1.966;2023-08-31T18:50:16;3.45;;;1.95;;
61590;SDS011;71994;52.410;-1.966;2023-08-31T18:53:25;6.43;;;2.00;;
61590;SDS011;71994;52.410;-1.966;2023-08-31T18:56:32;4.07;;;1.85;;
61590;SDS011;71994;52.410;-1.966;2023-08-31T18:59:40;2.42;;;1.65;;